Aviation Digital Data Service (ADDS)

Output produced by METARs form (0200 UTC 16 January 2019)
found at http://www.aviationweather.gov/metar/data/
 
TAF SMJP 152200Z 1600/1624 04005KT CAVOK TX30/1618Z TN23/1609Z 
     PROB30 
     TEMPO 1606/1610 5000 SHRA BKN018 
     BECMG 1611/1613 07008KT SCT020 
     TEMPO 1614/1618 VRB12G22KT 4000 SHRA FEW015CB SCT018 
     FM161800 06010KT 9999 FEW018TCU SCT018 
     TEMPO 1619/1623 4000 SHRA FEW015CB BKN018